createdAt,value
2023-05-09T00:02:17.301Z,20.98
2023-05-09T00:04:44.324Z,21.11
2023-05-09T00:07:11.236Z,21.29
2023-05-09T00:09:37.915Z,21.33
2023-05-09T00:12:05.620Z,21.44
2023-05-09T00:14:33.668Z,21.60
2023-05-09T00:17:00.896Z,21.15
2023-05-09T00:19:27.676Z,21.08
2023-05-09T00:21:54.422Z,20.83
2023-05-09T00:27:12.682Z,17.66
2023-05-09T00:29:39.527Z,19.68
2023-05-09T00:32:06.331Z,20.01
2023-05-09T00:34:33.589Z,19.96
2023-05-09T00:37:00.747Z,19.83
2023-05-09T00:39:27.470Z,19.77
2023-05-09T00:41:55.968Z,19.78
2023-05-09T00:44:22.728Z,19.76
2023-05-09T00:46:49.575Z,19.71
2023-05-09T00:49:16.452Z,19.64
2023-05-09T00:51:43.262Z,19.78
2023-05-09T00:54:10.005Z,19.92
2023-05-09T00:56:36.799Z,19.90
2023-05-09T00:59:03.781Z,20.31
2023-05-09T01:01:30.964Z,20.37
2023-05-09T01:03:57.956Z,20.63
2023-05-09T01:06:32.985Z,20.71
2023-05-09T01:09:04.021Z,20.82
2023-05-09T01:11:39.467Z,20.85
2023-05-09T01:14:26.100Z,20.67
2023-05-09T01:17:09.104Z,21.01
2023-05-09T01:19:58.872Z,21.06
2023-05-09T01:22:36.000Z,21.03
2023-05-09T01:25:40.578Z,21.20
2023-05-09T01:28:08.963Z,21.48
2023-05-09T01:30:36.224Z,21.44
2023-05-09T01:33:03.404Z,21.23
2023-05-09T01:35:30.474Z,21.03
2023-05-09T01:37:57.164Z,21.36
2023-05-09T01:40:24.398Z,21.57
2023-05-09T01:43:00.157Z,21.59
2023-05-09T01:45:27.146Z,21.33
2023-05-09T01:47:53.885Z,21.34
2023-05-09T01:50:20.658Z,21.39
2023-05-09T01:52:50.051Z,21.32
2023-05-09T01:55:17.095Z,21.28
2023-05-09T01:57:45.086Z,21.24
2023-05-09T02:00:13.758Z,21.28
2023-05-09T02:02:40.942Z,21.37
2023-05-09T02:05:09.495Z,21.21
2023-05-09T02:07:36.408Z,21.11
2023-05-09T02:10:03.870Z,20.99
2023-05-09T02:12:30.813Z,21.11
2023-05-09T02:14:57.543Z,20.58
2023-05-09T02:17:24.309Z,20.60
2023-05-09T02:19:51.242Z,20.63
2023-05-09T02:22:17.939Z,20.78
2023-05-09T02:24:45.517Z,20.67
2023-05-09T02:27:12.587Z,20.76
2023-05-09T02:29:42.357Z,20.90
2023-05-09T02:32:17.177Z,21.30
2023-05-09T02:34:44.027Z,21.15
2023-05-09T02:37:10.829Z,21.40
2023-05-09T02:39:37.753Z,21.30
2023-05-09T02:42:11.466Z,21.21
2023-05-09T02:44:39.130Z,21.00
2023-05-09T02:47:06.807Z,21.01
2023-05-09T02:49:34.032Z,20.95
2023-05-09T02:52:01.633Z,20.87
2023-05-09T02:54:28.524Z,21.47
2023-05-09T02:56:55.907Z,21.57
2023-05-09T02:59:22.741Z,21.53
2023-05-09T03:01:50.101Z,21.22
2023-05-09T03:04:18.183Z,21.66
2023-05-09T03:06:45.227Z,21.69
2023-05-09T03:09:12.675Z,21.60
2023-05-09T03:11:39.539Z,21.75
2023-05-09T03:14:08.430Z,21.88
2023-05-09T03:16:35.630Z,22.06
2023-05-09T03:19:03.725Z,21.86
2023-05-09T03:21:31.988Z,21.53
2023-05-09T03:23:59.762Z,21.66
2023-05-09T03:26:26.601Z,21.50
2023-05-09T03:28:53.852Z,21.45
2023-05-09T03:31:20.608Z,21.67
2023-05-09T03:33:47.482Z,21.74
2023-05-09T03:36:14.846Z,21.71
2023-05-09T03:38:42.496Z,21.73
2023-05-09T03:41:09.862Z,21.54
2023-05-09T03:43:36.667Z,21.42
2023-05-09T03:46:04.087Z,21.31
2023-05-09T03:48:31.952Z,21.47
2023-05-09T03:50:58.821Z,21.71
2023-05-09T03:53:27.005Z,21.78
2023-05-09T03:55:54.355Z,21.89
2023-05-09T03:58:21.376Z,22.56
2023-05-09T04:00:48.258Z,22.77
2023-05-09T04:03:18.752Z,23.19
2023-05-09T04:05:46.956Z,23.58
2023-05-09T04:08:21.326Z,23.79
2023-05-09T04:10:49.862Z,23.67
2023-05-09T04:13:16.792Z,23.63
2023-05-09T04:15:43.842Z,23.25
2023-05-09T04:18:10.632Z,23.05
2023-05-09T04:20:37.405Z,23.40
2023-05-09T04:23:04.195Z,23.43
2023-05-09T04:25:31.832Z,23.46
2023-05-09T04:27:58.774Z,23.74
2023-05-09T04:30:27.248Z,23.97
2023-05-09T04:32:55.403Z,23.71
2023-05-09T04:35:22.795Z,23.43
2023-05-09T04:37:50.639Z,23.79
2023-05-09T04:40:17.826Z,23.67
2023-05-09T04:42:50.162Z,23.94
2023-05-09T04:45:17.893Z,23.83
2023-05-09T04:47:44.938Z,23.99
2023-05-09T04:50:12.087Z,24.04
2023-05-09T04:52:38.795Z,24.20
2023-05-09T04:55:06.258Z,24.42
2023-05-09T04:57:36.554Z,24.77
2023-05-09T05:00:07.108Z,24.69
2023-05-09T05:02:34.267Z,24.78
2023-05-09T05:05:10.959Z,24.72
2023-05-09T05:07:39.607Z,24.77
2023-05-09T05:10:07.028Z,25.19
2023-05-09T05:12:34.657Z,25.21
2023-05-09T05:15:01.549Z,24.85
2023-05-09T05:17:29.646Z,24.58
2023-05-09T05:19:57.544Z,24.57
2023-05-09T05:22:25.132Z,24.83
2023-05-09T05:24:51.867Z,24.81
2023-05-09T05:27:18.607Z,25.37
2023-05-09T05:29:45.686Z,25.16
2023-05-09T05:32:12.546Z,25.48
2023-05-09T05:34:39.887Z,25.69
2023-05-09T05:37:06.718Z,25.95
2023-05-09T05:39:33.787Z,26.00
2023-05-09T05:42:00.924Z,25.82
2023-05-09T05:44:28.472Z,26.02
2023-05-09T05:46:55.205Z,26.17
2023-05-09T05:49:24.948Z,25.88
2023-05-09T05:51:51.881Z,26.05
2023-05-09T05:54:19.180Z,26.22
2023-05-09T05:56:46.718Z,26.09
2023-05-09T05:59:13.722Z,26.76
2023-05-09T06:01:40.896Z,27.04
2023-05-09T06:04:07.978Z,27.22
2023-05-09T06:06:34.954Z,27.55
2023-05-09T06:09:01.682Z,27.86
2023-05-09T06:11:28.433Z,28.11
2023-05-09T06:13:55.655Z,28.44
2023-05-09T06:16:22.966Z,28.70
2023-05-09T06:18:50.320Z,29.00
2023-05-09T06:21:17.089Z,29.08
2023-05-09T06:24:01.307Z,29.36
2023-05-09T06:26:30.823Z,29.40
2023-05-09T06:28:58.077Z,29.67
2023-05-09T06:31:25.804Z,29.72
2023-05-09T06:33:52.983Z,29.65
2023-05-09T06:36:20.751Z,29.66
2023-05-09T06:38:47.489Z,30.46
2023-05-09T06:41:14.236Z,30.97
2023-05-09T06:43:41.007Z,31.50
2023-05-09T06:46:07.917Z,32.04
2023-05-09T06:48:34.793Z,31.94
2023-05-09T06:51:01.550Z,31.27
2023-05-09T06:53:28.332Z,31.14
2023-05-09T06:55:55.099Z,31.13
2023-05-09T06:58:21.827Z,31.16
2023-05-09T07:00:48.597Z,31.15
2023-05-09T07:03:16.127Z,31.29
2023-05-09T07:05:42.864Z,31.15
2023-05-09T07:08:09.577Z,31.04
2023-05-09T07:10:36.279Z,31.03
2023-05-09T07:13:03.072Z,31.02
2023-05-09T07:15:40.593Z,30.94
2023-05-09T07:18:09.463Z,30.24
2023-05-09T07:20:36.584Z,30.32
2023-05-09T07:23:04.170Z,30.43
2023-05-09T07:25:31.067Z,30.49
2023-05-09T07:27:57.976Z,30.30
2023-05-09T07:30:25.303Z,30.24
2023-05-09T07:32:52.456Z,30.46
2023-05-09T07:35:20.151Z,30.99
2023-05-09T07:37:46.887Z,31.15
2023-05-09T07:40:14.147Z,31.36
2023-05-09T07:42:42.175Z,31.87
2023-05-09T07:45:10.468Z,31.66
2023-05-09T07:47:37.267Z,31.46
2023-05-09T07:50:04.279Z,31.60
2023-05-09T07:52:30.999Z,31.44
2023-05-09T07:54:57.736Z,30.96
2023-05-09T07:57:24.436Z,30.62
2023-05-09T07:59:51.352Z,30.23
2023-05-09T08:02:18.164Z,29.85
2023-05-09T08:04:48.716Z,30.00
2023-05-09T08:07:15.721Z,30.43
2023-05-09T08:09:42.420Z,30.67
2023-05-09T08:12:09.142Z,31.04
2023-05-09T08:14:35.894Z,31.24
2023-05-09T08:17:02.597Z,31.07
2023-05-09T08:19:29.515Z,30.93
2023-05-09T08:21:57.303Z,31.45
2023-05-09T08:24:24.015Z,31.79
2023-05-09T08:26:50.852Z,31.49
2023-05-09T08:29:17.908Z,31.20
2023-05-09T08:31:44.757Z,30.74
2023-05-09T08:34:11.564Z,30.39
2023-05-09T08:36:38.326Z,30.11
2023-05-09T08:39:05.025Z,30.50
2023-05-09T08:41:33.150Z,31.12
2023-05-09T08:44:00.177Z,31.40
2023-05-09T08:46:29.780Z,31.04
2023-05-09T08:48:57.082Z,30.70
2023-05-09T08:51:23.851Z,30.84
2023-05-09T08:53:51.131Z,30.79
2023-05-09T08:56:17.865Z,31.08
2023-05-09T08:58:44.631Z,31.27
2023-05-09T09:01:13.298Z,30.77
2023-05-09T09:03:40.122Z,30.49
2023-05-09T09:06:07.856Z,30.48
2023-05-09T09:08:34.602Z,30.87
2023-05-09T09:11:01.317Z,31.18
2023-05-09T09:13:28.280Z,31.23
2023-05-09T09:15:55.071Z,31.33
2023-05-09T09:18:28.422Z,31.65
2023-05-09T09:21:00.801Z,32.26
2023-05-09T09:23:27.974Z,32.61
2023-05-09T09:26:06.885Z,32.59
2023-05-09T09:28:33.779Z,32.20
2023-05-09T09:31:00.626Z,32.02
2023-05-09T09:33:28.704Z,31.91
2023-05-09T09:35:56.532Z,31.47
2023-05-09T09:38:24.156Z,31.01
2023-05-09T09:40:58.013Z,30.61
2023-05-09T09:43:31.802Z,30.26
2023-05-09T09:46:05.602Z,29.95
2023-05-09T09:48:33.981Z,29.99
2023-05-09T09:51:11.474Z,29.93
2023-05-09T09:53:42.034Z,29.73
2023-05-09T09:56:09.230Z,30.03
2023-05-09T09:58:36.359Z,29.97
2023-05-09T10:01:07.388Z,29.86
2023-05-09T10:03:42.066Z,30.09
2023-05-09T10:06:13.044Z,30.68
2023-05-09T10:08:40.092Z,30.95
2023-05-09T10:11:07.557Z,30.41
2023-05-09T10:13:34.908Z,29.57
2023-05-09T10:16:01.860Z,29.69
2023-05-09T10:18:29.309Z,29.84
2023-05-09T10:20:56.999Z,29.81
2023-05-09T10:23:24.314Z,29.78
2023-05-09T10:26:03.637Z,29.78
2023-05-09T10:28:32.284Z,29.50
2023-05-09T10:31:08.943Z,29.82
2023-05-09T10:33:46.240Z,30.53
2023-05-09T10:36:13.367Z,30.73
2023-05-09T10:38:40.043Z,30.21
2023-05-09T10:41:06.788Z,30.43
2023-05-09T10:43:34.763Z,30.96
2023-05-09T10:46:06.289Z,31.35
2023-05-09T10:48:33.045Z,31.76
2023-05-09T10:51:03.536Z,32.29
2023-05-09T10:53:44.228Z,31.87
2023-05-09T10:56:35.834Z,31.30
2023-05-09T10:59:02.992Z,30.88
2023-05-09T11:01:37.007Z,31.37
2023-05-09T11:04:11.404Z,31.51
2023-05-09T11:06:46.315Z,31.53
2023-05-09T11:09:33.497Z,31.84
2023-05-09T11:12:08.419Z,31.17
2023-05-09T11:14:48.904Z,30.40
2023-05-09T11:17:22.034Z,30.55
2023-05-09T11:19:51.886Z,30.64
2023-05-09T11:22:28.963Z,30.29
2023-05-09T11:25:05.560Z,30.02
2023-05-09T11:27:52.434Z,30.13
2023-05-09T11:30:20.518Z,30.21
2023-05-09T11:32:52.143Z,30.66
2023-05-09T11:35:21.492Z,30.85
2023-05-09T11:38:01.614Z,30.76
2023-05-09T11:40:28.892Z,30.63
2023-05-09T11:42:58.597Z,29.94
2023-05-09T11:45:35.283Z,29.76
2023-05-09T11:48:03.370Z,30.04
2023-05-09T11:50:30.327Z,30.10
2023-05-09T11:52:57.399Z,30.15
2023-05-09T11:55:25.789Z,30.03
2023-05-09T11:57:53.522Z,30.09
2023-05-09T12:00:22.070Z,30.80
2023-05-09T12:02:49.226Z,31.35
2023-05-09T12:05:17.483Z,31.77
2023-05-09T12:07:44.688Z,32.19
2023-05-09T12:10:18.978Z,32.02
2023-05-09T12:12:51.142Z,31.89
2023-05-09T12:15:18.600Z,31.59
2023-05-09T12:17:47.253Z,30.98
2023-05-09T12:20:15.258Z,30.64
2023-05-09T12:22:45.252Z,30.75
2023-05-09T12:25:12.571Z,30.97
2023-05-09T12:27:40.281Z,30.90
2023-05-09T12:30:12.051Z,30.05
2023-05-09T12:32:40.444Z,29.88
2023-05-09T12:35:10.498Z,29.65
2023-05-09T12:37:38.613Z,29.64
2023-05-09T12:40:08.671Z,29.52
2023-05-09T12:44:08.475Z,27.19
2023-05-09T12:46:36.922Z,29.51
2023-05-09T12:49:04.779Z,30.11
2023-05-09T12:51:31.567Z,30.10
2023-05-09T12:54:02.726Z,30.05
2023-05-09T12:56:32.591Z,30.07
2023-05-09T12:58:59.110Z,30.16
2023-05-09T13:01:29.077Z,30.19
2023-05-09T13:04:05.956Z,30.35
2023-05-09T13:06:33.793Z,30.33
2023-05-09T13:09:01.869Z,30.31
2023-05-09T13:11:28.905Z,30.41
2023-05-09T13:13:55.673Z,30.29
2023-05-09T13:16:22.629Z,30.17
2023-05-09T13:18:49.395Z,29.88
2023-05-09T13:21:18.712Z,29.40
2023-05-09T13:23:49.357Z,29.38
2023-05-09T13:26:17.646Z,29.30
2023-05-09T13:28:44.128Z,29.04
2023-05-09T13:31:10.957Z,28.63
2023-05-09T13:33:37.599Z,28.60
2023-05-09T13:36:06.534Z,28.75
2023-05-09T13:38:37.946Z,28.76
2023-05-09T13:41:04.482Z,28.70
2023-05-09T13:43:33.566Z,28.77
2023-05-09T13:46:00.745Z,28.46
2023-05-09T13:48:27.397Z,28.08
2023-05-09T13:50:55.629Z,28.20
2023-05-09T13:53:34.190Z,28.23
2023-05-09T13:56:08.088Z,28.40
2023-05-09T13:58:35.569Z,28.45
2023-05-09T14:01:02.307Z,28.37
2023-05-09T14:03:29.037Z,28.34
2023-05-09T14:05:55.675Z,28.44
2023-05-09T14:08:23.604Z,28.43
2023-05-09T14:10:50.609Z,28.27
2023-05-09T14:13:17.562Z,28.20
2023-05-09T14:15:44.228Z,28.27
2023-05-09T14:18:13.767Z,28.11
2023-05-09T14:20:42.628Z,28.16
2023-05-09T14:23:10.445Z,28.23
2023-05-09T14:25:37.264Z,28.33
2023-05-09T14:28:06.193Z,28.47
2023-05-09T14:30:33.621Z,28.87
2023-05-09T14:33:00.217Z,28.91
2023-05-09T14:35:27.245Z,28.83
2023-05-09T14:37:53.838Z,29.18
2023-05-09T14:40:20.572Z,29.27
2023-05-09T14:42:47.875Z,29.21
2023-05-09T14:45:14.784Z,29.04
2023-05-09T14:47:41.578Z,29.09
2023-05-09T14:50:10.731Z,29.00
2023-05-09T14:52:37.779Z,28.57
2023-05-09T14:55:06.569Z,28.59
2023-05-09T14:57:33.582Z,28.51
2023-05-09T15:00:20.398Z,28.47
2023-05-09T15:02:46.880Z,28.20
2023-05-09T15:05:13.534Z,27.86
2023-05-09T15:07:40.825Z,27.87
2023-05-09T15:10:07.651Z,27.81
2023-05-09T15:12:34.715Z,27.33
2023-05-09T15:15:14.887Z,27.13
2023-05-09T15:17:42.468Z,27.01
2023-05-09T15:20:10.617Z,27.33
2023-05-09T15:22:37.255Z,27.24
2023-05-09T15:25:06.209Z,27.22
2023-05-09T15:27:33.298Z,27.02
2023-05-09T15:30:00.210Z,27.10
2023-05-09T15:32:27.110Z,26.94
2023-05-09T15:34:53.708Z,26.75
2023-05-09T15:37:20.251Z,26.68
2023-05-09T15:39:46.783Z,26.91
2023-05-09T15:42:14.303Z,26.72
2023-05-09T15:44:41.566Z,26.79
2023-05-09T15:47:08.741Z,26.84
2023-05-09T15:49:35.573Z,26.69
2023-05-09T15:52:03.401Z,26.65
2023-05-09T15:54:31.560Z,26.58
2023-05-09T15:56:58.704Z,26.17
2023-05-09T15:59:26.533Z,26.49
2023-05-09T16:01:54.066Z,26.24
2023-05-09T16:04:21.162Z,26.25
2023-05-09T16:06:48.327Z,26.55
2023-05-09T16:09:15.044Z,26.38
2023-05-09T16:11:42.571Z,26.48
2023-05-09T16:14:10.830Z,26.91
2023-05-09T16:16:38.182Z,27.09
2023-05-09T16:19:08.983Z,27.15
2023-05-09T16:21:37.081Z,27.13
2023-05-09T16:24:04.335Z,26.77
2023-05-09T16:26:31.652Z,26.68
2023-05-09T16:28:58.172Z,26.69
2023-05-09T16:31:25.780Z,26.59
2023-05-09T16:33:53.482Z,26.45
2023-05-09T16:36:20.389Z,26.25
2023-05-09T16:38:49.389Z,26.34
2023-05-09T16:41:16.380Z,26.38
2023-05-09T16:43:43.222Z,26.11
2023-05-09T16:46:09.875Z,26.27
2023-05-09T16:48:36.478Z,26.25
2023-05-09T16:51:03.614Z,26.23
2023-05-09T16:53:30.292Z,26.20
2023-05-09T16:55:57.011Z,26.22
2023-05-09T16:58:24.594Z,26.24
2023-05-09T17:00:51.481Z,26.11
2023-05-09T17:03:18.240Z,25.99
2023-05-09T17:05:44.950Z,26.02
2023-05-09T17:08:11.500Z,25.97
2023-05-09T17:10:40.749Z,25.85
2023-05-09T17:13:09.704Z,25.63
2023-05-09T17:15:37.782Z,25.71
2023-05-09T17:18:04.722Z,25.68
2023-05-09T17:20:31.520Z,25.50
2023-05-09T17:22:58.065Z,25.38
2023-05-09T17:25:24.525Z,25.27
2023-05-09T17:27:51.194Z,25.24
2023-05-09T17:30:19.404Z,24.84
2023-05-09T17:32:48.269Z,24.87
2023-05-09T17:35:14.998Z,24.88
2023-05-09T17:37:44.095Z,24.66
2023-05-09T17:40:11.314Z,24.87
2023-05-09T17:42:39.374Z,24.73
2023-05-09T17:45:07.151Z,24.53
2023-05-09T17:47:33.797Z,24.42
2023-05-09T17:50:00.717Z,24.47
2023-05-09T17:52:27.203Z,24.21
2023-05-09T17:54:53.754Z,23.98
2023-05-09T17:57:20.359Z,24.17
2023-05-09T17:59:48.021Z,24.10
2023-05-09T18:02:16.083Z,24.03
2023-05-09T18:04:44.645Z,23.76
2023-05-09T18:07:11.325Z,23.78
2023-05-09T18:09:39.577Z,23.91
2023-05-09T18:12:06.565Z,23.46
2023-05-09T18:14:33.083Z,23.46
2023-05-09T18:16:59.752Z,23.15
2023-05-09T18:19:26.281Z,23.15
2023-05-09T18:21:53.161Z,23.16
2023-05-09T18:24:20.947Z,22.96
2023-05-09T18:26:48.546Z,22.90
2023-05-09T18:29:16.411Z,22.67
2023-05-09T18:31:43.179Z,22.41
2023-05-09T18:34:10.280Z,22.38
2023-05-09T18:36:37.049Z,22.55
2023-05-09T18:39:03.897Z,22.42
2023-05-09T18:41:32.372Z,22.35
2023-05-09T18:43:58.962Z,22.47
2023-05-09T18:46:27.252Z,22.19
2023-05-09T18:48:54.267Z,21.84
2023-05-09T18:51:20.961Z,21.76
2023-05-09T18:53:48.761Z,21.58
2023-05-09T18:56:17.727Z,21.54
2023-05-09T18:58:44.364Z,21.44
2023-05-09T19:01:11.527Z,21.34
2023-05-09T19:03:45.274Z,21.45
2023-05-09T19:06:12.776Z,21.63
2023-05-09T19:08:40.568Z,21.57
2023-05-09T19:11:07.173Z,21.57
2023-05-09T19:13:37.818Z,21.40
2023-05-09T19:16:04.974Z,21.43
2023-05-09T19:18:31.942Z,21.68
2023-05-09T19:20:58.543Z,21.44
2023-05-09T19:23:28.555Z,21.38
2023-05-09T19:25:55.069Z,21.13
2023-05-09T19:28:24.590Z,21.31
2023-05-09T19:30:51.714Z,21.44
2023-05-09T19:33:19.107Z,21.58
2023-05-09T19:35:45.977Z,21.53
2023-05-09T19:38:13.710Z,21.66
2023-05-09T19:40:40.334Z,21.77
2023-05-09T19:43:06.877Z,21.83
2023-05-09T19:45:33.432Z,21.75
2023-05-09T19:48:00.032Z,21.78
2023-05-09T19:50:26.877Z,21.81
2023-05-09T19:52:53.765Z,21.66
2023-05-09T19:55:20.306Z,21.47
2023-05-09T19:57:46.814Z,21.51
2023-05-09T20:00:14.242Z,21.37
2023-05-09T20:02:41.880Z,20.86
2023-05-09T20:05:08.687Z,20.72
2023-05-09T20:07:36.240Z,20.53
2023-05-09T20:10:03.002Z,20.79
2023-05-09T20:12:30.531Z,20.93
2023-05-09T20:14:57.779Z,20.65
2023-05-09T20:17:27.376Z,20.07
2023-05-09T20:19:54.129Z,19.76
2023-05-09T20:22:21.276Z,19.67
2023-05-09T20:24:48.009Z,19.94
2023-05-09T20:27:14.755Z,19.85
2023-05-09T20:29:41.381Z,19.79
2023-05-09T20:32:08.287Z,19.96
2023-05-09T20:34:37.671Z,20.18
2023-05-09T20:37:04.329Z,20.24
2023-05-09T20:39:31.027Z,20.07
2023-05-09T20:42:01.550Z,19.88
2023-05-09T20:44:28.480Z,19.78
2023-05-09T20:46:55.026Z,19.47
2023-05-09T20:49:22.385Z,19.68
2023-05-09T20:51:49.063Z,19.64
2023-05-09T20:54:17.037Z,19.94
2023-05-09T20:56:43.556Z,20.32
2023-05-09T20:59:10.072Z,20.23
2023-05-09T21:01:39.420Z,20.22
2023-05-09T21:04:07.663Z,20.03
2023-05-09T21:06:36.995Z,19.63
2023-05-09T21:09:05.017Z,19.95
2023-05-09T21:11:32.552Z,20.07
2023-05-09T21:14:00.244Z,20.03
2023-05-09T21:16:27.735Z,20.07
2023-05-09T21:18:54.239Z,20.21
2023-05-09T21:21:20.757Z,20.41
2023-05-09T21:23:47.329Z,20.80
2023-05-09T21:26:13.968Z,20.64
2023-05-09T21:28:40.684Z,20.58
2023-05-09T21:31:08.987Z,20.69
2023-05-09T21:33:37.821Z,20.56
2023-05-09T21:36:05.490Z,20.88
2023-05-09T21:38:32.512Z,20.93
2023-05-09T21:40:59.248Z,20.83
2023-05-09T21:43:26.835Z,20.86
2023-05-09T21:45:54.129Z,20.68
2023-05-09T21:48:20.976Z,20.69
2023-05-09T21:50:47.672Z,20.64
2023-05-09T21:53:14.385Z,20.60
2023-05-09T21:55:41.165Z,20.55
2023-05-09T21:58:07.759Z,20.46
2023-05-09T22:00:34.746Z,20.56
2023-05-09T22:03:01.438Z,20.83
2023-05-09T22:05:28.344Z,20.92
2023-05-09T22:07:55.095Z,21.04
2023-05-09T22:10:21.914Z,20.97
2023-05-09T22:12:48.572Z,20.82
2023-05-09T22:15:15.282Z,21.05
2023-05-09T22:17:42.411Z,21.02
2023-05-09T22:20:10.123Z,21.13
2023-05-09T22:22:37.157Z,21.19
2023-05-09T22:25:04.954Z,21.31
2023-05-09T22:27:31.940Z,21.14
2023-05-09T22:29:58.586Z,20.95
2023-05-09T22:32:25.847Z,21.05
2023-05-09T22:34:53.539Z,21.13
2023-05-09T22:37:20.158Z,21.04
2023-05-09T22:39:46.753Z,21.14
2023-05-09T22:42:13.494Z,21.18
2023-05-09T22:44:40.315Z,21.20
2023-05-09T22:47:07.624Z,21.29
2023-05-09T22:49:35.088Z,20.87
2023-05-09T22:52:02.130Z,21.14
2023-05-09T22:54:28.878Z,20.65
2023-05-09T22:56:55.571Z,20.50
2023-05-09T22:59:22.597Z,20.87
2023-05-09T23:01:50.222Z,20.84
2023-05-09T23:04:16.831Z,20.95
2023-05-09T23:06:43.738Z,20.86
2023-05-09T23:09:10.438Z,20.92
2023-05-09T23:11:37.334Z,21.18
2023-05-09T23:14:04.021Z,21.29
2023-05-09T23:16:31.426Z,21.46
2023-05-09T23:18:58.101Z,21.44
2023-05-09T23:21:24.828Z,21.56
2023-05-09T23:23:51.501Z,21.42
2023-05-09T23:26:18.083Z,21.19
2023-05-09T23:28:44.759Z,21.05
2023-05-09T23:31:11.417Z,20.93
2023-05-09T23:33:38.427Z,20.55
2023-05-09T23:36:05.958Z,20.76
2023-05-09T23:38:32.518Z,20.97
2023-05-09T23:41:00.409Z,21.21
2023-05-09T23:43:26.965Z,21.34
2023-05-09T23:45:53.914Z,21.23
2023-05-09T23:48:20.755Z,21.14
2023-05-09T23:50:48.790Z,21.42
2023-05-09T23:53:16.068Z,21.40
2023-05-09T23:55:42.582Z,21.36
2023-05-09T23:58:09.156Z,21.17
